sensor_id;sensor_type;location;lat;lon;timestamp;P1;durP1;ratioP1;P2;durP2;ratioP2
49396;SDS011;35615;41.410;2.194;2023-05-29T00:00:03;13.77;;;3.90;;
49396;SDS011;35615;41.410;2.194;2023-05-29T00:02:35;20.70;;;4.60;;
49396;SDS011;35615;41.410;2.194;2023-05-29T00:05:03;17.83;;;4.80;;
49396;SDS011;35615;41.410;2.194;2023-05-29T00:07:32;10.10;;;3.88;;
49396;SDS011;35615;41.410;2.194;2023-05-29T00:09:59;22.70;;;4.25;;
49396;SDS011;35615;41.410;2.194;2023-05-29T00:12:35;19.23;;;4.57;;
49396;SDS011;35615;41.410;2.194;2023-05-29T00:15:03;15.02;;;4.20;;
49396;SDS011;35615;41.410;2.194;2023-05-29T00:17:32;16.95;;;4.88;;
49396;SDS011;35615;41.410;2.194;2023-05-29T00:20:02;17.33;;;4.35;;
49396;SDS011;35615;41.410;2.194;2023-05-29T00:22:36;14.70;;;4.50;;
49396;SDS011;35615;41.410;2.194;2023-05-29T00:25:04;19.55;;;5.53;;
49396;SDS011;35615;41.410;2.194;2023-05-29T00:27:32;21.05;;;4.43;;
49396;SDS011;35615;41.410;2.194;2023-05-29T00:30:01;16.00;;;4.93;;
49396;SDS011;35615;41.410;2.194;2023-05-29T00:32:30;18.60;;;4.15;;
49396;SDS011;35615;41.410;2.194;2023-05-29T00:34:57;19.98;;;4.35;;
49396;SDS011;35615;41.410;2.194;2023-05-29T00:37:25;10.77;;;4.15;;
49396;SDS011;35615;41.410;2.194;2023-05-29T00:39:52;14.00;;;4.47;;
49396;SDS011;35615;41.410;2.194;2023-05-29T00:42:20;12.95;;;4.35;;
49396;SDS011;35615;41.410;2.194;2023-05-29T00:44:47;9.77;;;4.50;;
49396;SDS011;35615;41.410;2.194;2023-05-29T00:47:14;16.42;;;3.75;;
49396;SDS011;35615;41.410;2.194;2023-05-29T00:49:42;18.02;;;4.10;;
49396;SDS011;35615;41.410;2.194;2023-05-29T00:52:13;15.05;;;4.00;;
49396;SDS011;35615;41.410;2.194;2023-05-29T00:54:46;15.27;;;3.70;;
49396;SDS011;35615;41.410;2.194;2023-05-29T00:57:14;25.15;;;4.47;;
49396;SDS011;35615;41.410;2.194;2023-05-29T00:59:44;21.48;;;4.45;;
49396;SDS011;35615;41.410;2.194;2023-05-29T01:02:14;14.48;;;3.67;;
49396;SDS011;35615;41.410;2.194;2023-05-29T01:04:44;16.40;;;3.95;;
49396;SDS011;35615;41.410;2.194;2023-05-29T01:07:12;15.55;;;4.40;;
49396;SDS011;35615;41.410;2.194;2023-05-29T01:09:41;17.67;;;3.90;;
49396;SDS011;35615;41.410;2.194;2023-05-29T01:12:31;17.73;;;4.50;;
49396;SDS011;35615;41.410;2.194;2023-05-29T01:20:57;15.43;;;4.22;;
49396;SDS011;35615;41.410;2.194;2023-05-29T01:24:02;15.38;;;4.13;;
49396;SDS011;35615;41.410;2.194;2023-05-29T01:29:23;16.90;;;3.92;;
49396;SDS011;35615;41.410;2.194;2023-05-29T01:31:53;12.20;;;3.83;;
49396;SDS011;35615;41.410;2.194;2023-05-29T01:34:21;27.58;;;5.97;;
49396;SDS011;35615;41.410;2.194;2023-05-29T01:36:48;13.30;;;4.07;;
49396;SDS011;35615;41.410;2.194;2023-05-29T01:39:16;19.98;;;3.80;;
49396;SDS011;35615;41.410;2.194;2023-05-29T01:41:46;20.88;;;4.30;;
49396;SDS011;35615;41.410;2.194;2023-05-29T01:44:14;15.82;;;5.05;;
49396;SDS011;35615;41.410;2.194;2023-05-29T01:46:45;29.52;;;6.20;;
49396;SDS011;35615;41.410;2.194;2023-05-29T01:49:13;18.75;;;4.88;;
49396;SDS011;35615;41.410;2.194;2023-05-29T01:51:42;20.85;;;5.28;;
49396;SDS011;35615;41.410;2.194;2023-05-29T01:54:09;15.25;;;4.25;;
49396;SDS011;35615;41.410;2.194;2023-05-29T01:56:37;16.73;;;4.38;;
49396;SDS011;35615;41.410;2.194;2023-05-29T01:59:05;18.23;;;4.13;;
49396;SDS011;35615;41.410;2.194;2023-05-29T02:01:35;17.75;;;3.90;;
49396;SDS011;35615;41.410;2.194;2023-05-29T02:04:05;15.75;;;4.57;;
49396;SDS011;35615;41.410;2.194;2023-05-29T02:06:33;12.88;;;4.80;;
49396;SDS011;35615;41.410;2.194;2023-05-29T02:09:00;12.63;;;3.83;;
49396;SDS011;35615;41.410;2.194;2023-05-29T02:11:28;11.75;;;4.18;;
49396;SDS011;35615;41.410;2.194;2023-05-29T02:13:55;19.30;;;4.88;;
49396;SDS011;35615;41.410;2.194;2023-05-29T02:16:26;9.40;;;4.38;;
49396;SDS011;35615;41.410;2.194;2023-05-29T02:18:55;20.38;;;4.43;;
49396;SDS011;35615;41.410;2.194;2023-05-29T02:21:22;17.65;;;4.13;;
49396;SDS011;35615;41.410;2.194;2023-05-29T02:23:50;13.05;;;4.72;;
49396;SDS011;35615;41.410;2.194;2023-05-29T02:26:17;16.95;;;4.20;;
49396;SDS011;35615;41.410;2.194;2023-05-29T02:28:44;15.55;;;4.35;;
49396;SDS011;35615;41.410;2.194;2023-05-29T02:31:15;20.55;;;5.43;;
49396;SDS011;35615;41.410;2.194;2023-05-29T02:33:42;25.45;;;5.65;;
49396;SDS011;35615;41.410;2.194;2023-05-29T02:36:10;17.42;;;4.18;;
49396;SDS011;35615;41.410;2.194;2023-05-29T02:38:39;11.90;;;4.70;;
49396;SDS011;35615;41.410;2.194;2023-05-29T02:41:07;13.48;;;3.83;;
49396;SDS011;35615;41.410;2.194;2023-05-29T02:43:34;18.70;;;4.50;;
49396;SDS011;35615;41.410;2.194;2023-05-29T02:46:01;18.60;;;4.30;;
49396;SDS011;35615;41.410;2.194;2023-05-29T02:48:29;22.92;;;4.80;;
49396;SDS011;35615;41.410;2.194;2023-05-29T02:50:59;16.52;;;4.18;;
49396;SDS011;35615;41.410;2.194;2023-05-29T02:53:30;17.08;;;4.68;;
49396;SDS011;35615;41.410;2.194;2023-05-29T02:55:58;16.83;;;5.07;;
49396;SDS011;35615;41.410;2.194;2023-05-29T02:58:33;23.63;;;4.55;;
49396;SDS011;35615;41.410;2.194;2023-05-29T03:01:02;14.40;;;3.65;;
49396;SDS011;35615;41.410;2.194;2023-05-29T03:03:29;18.27;;;3.85;;
49396;SDS011;35615;41.410;2.194;2023-05-29T03:06:01;21.37;;;4.37;;
49396;SDS011;35615;41.410;2.194;2023-05-29T03:08:29;19.52;;;4.68;;
49396;SDS011;35615;41.410;2.194;2023-05-29T03:11:00;17.85;;;4.35;;
49396;SDS011;35615;41.410;2.194;2023-05-29T03:13:27;13.60;;;3.65;;
49396;SDS011;35615;41.410;2.194;2023-05-29T03:16:02;19.52;;;4.60;;
49396;SDS011;35615;41.410;2.194;2023-05-29T03:18:30;14.98;;;4.53;;
49396;SDS011;35615;41.410;2.194;2023-05-29T03:20:59;24.08;;;3.80;;
49396;SDS011;35615;41.410;2.194;2023-05-29T03:23:26;13.73;;;3.75;;
49396;SDS011;35615;41.410;2.194;2023-05-29T03:25:53;15.02;;;3.85;;
49396;SDS011;35615;41.410;2.194;2023-05-29T03:28:22;19.67;;;4.43;;
49396;SDS011;35615;41.410;2.194;2023-05-29T03:30:53;24.25;;;6.18;;
49396;SDS011;35615;41.410;2.194;2023-05-29T03:33:22;20.88;;;4.22;;
49396;SDS011;35615;41.410;2.194;2023-05-29T03:36:03;13.95;;;3.63;;
49396;SDS011;35615;41.410;2.194;2023-05-29T03:38:31;12.57;;;3.53;;
49396;SDS011;35615;41.410;2.194;2023-05-29T03:40:59;17.77;;;4.70;;
49396;SDS011;35615;41.410;2.194;2023-05-29T03:43:29;14.10;;;4.15;;
49396;SDS011;35615;41.410;2.194;2023-05-29T03:45:57;16.67;;;4.47;;
49396;SDS011;35615;41.410;2.194;2023-05-29T03:48:27;17.30;;;4.75;;
49396;SDS011;35615;41.410;2.194;2023-05-29T03:50:54;18.58;;;4.40;;
49396;SDS011;35615;41.410;2.194;2023-05-29T03:53:28;15.98;;;4.50;;
49396;SDS011;35615;41.410;2.194;2023-05-29T03:55:56;21.17;;;4.20;;
49396;SDS011;35615;41.410;2.194;2023-05-29T03:58:23;15.20;;;4.97;;
49396;SDS011;35615;41.410;2.194;2023-05-29T04:00:51;25.98;;;5.07;;
49396;SDS011;35615;41.410;2.194;2023-05-29T04:03:19;16.65;;;5.38;;
49396;SDS011;35615;41.410;2.194;2023-05-29T04:05:49;27.38;;;5.32;;
49396;SDS011;35615;41.410;2.194;2023-05-29T04:08:16;16.33;;;4.90;;
49396;SDS011;35615;41.410;2.194;2023-05-29T04:10:45;25.23;;;5.90;;
49396;SDS011;35615;41.410;2.194;2023-05-29T04:13:13;22.02;;;5.78;;
49396;SDS011;35615;41.410;2.194;2023-05-29T04:15:40;15.68;;;5.90;;
49396;SDS011;35615;41.410;2.194;2023-05-29T04:18:09;18.90;;;6.60;;
49396;SDS011;35615;41.410;2.194;2023-05-29T04:20:36;20.58;;;6.68;;
49396;SDS011;35615;41.410;2.194;2023-05-29T04:23:04;23.13;;;6.25;;
49396;SDS011;35615;41.410;2.194;2023-05-29T04:25:32;23.35;;;6.03;;
49396;SDS011;35615;41.410;2.194;2023-05-29T04:28:00;21.13;;;7.20;;
49396;SDS011;35615;41.410;2.194;2023-05-29T04:30:29;18.08;;;6.65;;
49396;SDS011;35615;41.410;2.194;2023-05-29T04:32:58;31.95;;;7.15;;
49396;SDS011;35615;41.410;2.194;2023-05-29T04:35:27;23.10;;;7.35;;
49396;SDS011;35615;41.410;2.194;2023-05-29T04:37:58;27.17;;;7.15;;
49396;SDS011;35615;41.410;2.194;2023-05-29T04:40:29;27.83;;;7.15;;
49396;SDS011;35615;41.410;2.194;2023-05-29T04:43:02;27.10;;;7.50;;
49396;SDS011;35615;41.410;2.194;2023-05-29T04:45:55;19.20;;;6.35;;
49396;SDS011;35615;41.410;2.194;2023-05-29T04:48:23;18.60;;;6.55;;
49396;SDS011;35615;41.410;2.194;2023-05-29T04:50:51;23.20;;;6.55;;
49396;SDS011;35615;41.410;2.194;2023-05-29T04:53:19;26.75;;;6.85;;
49396;SDS011;35615;41.410;2.194;2023-05-29T04:55:47;27.00;;;6.82;;
49396;SDS011;35615;41.410;2.194;2023-05-29T04:58:15;15.25;;;6.20;;
49396;SDS011;35615;41.410;2.194;2023-05-29T05:00:42;18.73;;;6.57;;
49396;SDS011;35615;41.410;2.194;2023-05-29T05:03:10;19.50;;;6.38;;
49396;SDS011;35615;41.410;2.194;2023-05-29T05:05:37;24.67;;;7.07;;
49396;SDS011;35615;41.410;2.194;2023-05-29T05:08:05;22.85;;;5.97;;
49396;SDS011;35615;41.410;2.194;2023-05-29T05:10:33;16.98;;;5.95;;
49396;SDS011;35615;41.410;2.194;2023-05-29T05:13:02;20.27;;;6.05;;
49396;SDS011;35615;41.410;2.194;2023-05-29T05:15:30;21.20;;;7.15;;
49396;SDS011;35615;41.410;2.194;2023-05-29T05:17:58;22.83;;;5.63;;
49396;SDS011;35615;41.410;2.194;2023-05-29T05:20:26;18.02;;;6.35;;
49396;SDS011;35615;41.410;2.194;2023-05-29T05:22:57;18.33;;;5.50;;
49396;SDS011;35615;41.410;2.194;2023-05-29T05:25:27;21.48;;;6.40;;
49396;SDS011;35615;41.410;2.194;2023-05-29T05:28:01;18.50;;;5.53;;
49396;SDS011;35615;41.410;2.194;2023-05-29T05:30:32;18.27;;;6.05;;
49396;SDS011;35615;41.410;2.194;2023-05-29T05:33:00;12.82;;;5.32;;
49396;SDS011;35615;41.410;2.194;2023-05-29T05:35:28;21.90;;;6.78;;
49396;SDS011;35615;41.410;2.194;2023-05-29T05:37:55;26.92;;;5.88;;
49396;SDS011;35615;41.410;2.194;2023-05-29T05:40:26;24.77;;;6.00;;
49396;SDS011;35615;41.410;2.194;2023-05-29T05:45:55;22.50;;;5.88;;
49396;SDS011;35615;41.410;2.194;2023-05-29T05:48:35;13.40;;;5.00;;
49396;SDS011;35615;41.410;2.194;2023-05-29T05:51:07;20.05;;;6.18;;
49396;SDS011;35615;41.410;2.194;2023-05-29T05:53:39;25.42;;;9.07;;
49396;SDS011;35615;41.410;2.194;2023-05-29T05:56:09;21.10;;;5.43;;
49396;SDS011;35615;41.410;2.194;2023-05-29T05:58:39;24.33;;;6.32;;
49396;SDS011;35615;41.410;2.194;2023-05-29T06:01:06;29.25;;;6.07;;
49396;SDS011;35615;41.410;2.194;2023-05-29T06:03:43;20.80;;;5.50;;
49396;SDS011;35615;41.410;2.194;2023-05-29T06:06:10;21.48;;;5.88;;
49396;SDS011;35615;41.410;2.194;2023-05-29T06:08:40;27.02;;;6.63;;
49396;SDS011;35615;41.410;2.194;2023-05-29T06:11:08;30.25;;;6.25;;
49396;SDS011;35615;41.410;2.194;2023-05-29T06:13:38;29.17;;;7.57;;
49396;SDS011;35615;41.410;2.194;2023-05-29T06:16:11;17.85;;;5.78;;
49396;SDS011;35615;41.410;2.194;2023-05-29T06:18:38;29.02;;;6.78;;
49396;SDS011;35615;41.410;2.194;2023-05-29T06:21:09;24.67;;;6.93;;
49396;SDS011;35615;41.410;2.194;2023-05-29T06:23:42;27.52;;;6.63;;
49396;SDS011;35615;41.410;2.194;2023-05-29T06:26:13;34.00;;;6.25;;
49396;SDS011;35615;41.410;2.194;2023-05-29T06:28:42;24.75;;;6.00;;
49396;SDS011;35615;41.410;2.194;2023-05-29T06:31:11;30.98;;;6.03;;
49396;SDS011;35615;41.410;2.194;2023-05-29T06:33:38;27.48;;;5.22;;
49396;SDS011;35615;41.410;2.194;2023-05-29T06:36:09;20.17;;;5.18;;
49396;SDS011;35615;41.410;2.194;2023-05-29T06:38:40;24.80;;;5.93;;
49396;SDS011;35615;41.410;2.194;2023-05-29T06:41:13;16.88;;;5.82;;
49396;SDS011;35615;41.410;2.194;2023-05-29T06:43:41;23.85;;;6.25;;
49396;SDS011;35615;41.410;2.194;2023-05-29T06:46:10;24.05;;;5.47;;
49396;SDS011;35615;41.410;2.194;2023-05-29T06:48:41;29.70;;;6.40;;
49396;SDS011;35615;41.410;2.194;2023-05-29T06:51:08;20.27;;;6.80;;
49396;SDS011;35615;41.410;2.194;2023-05-29T06:53:46;30.63;;;6.43;;
49396;SDS011;35615;41.410;2.194;2023-05-29T06:56:15;27.52;;;7.30;;
49396;SDS011;35615;41.410;2.194;2023-05-29T06:58:43;23.90;;;6.22;;
49396;SDS011;35615;41.410;2.194;2023-05-29T07:01:14;21.27;;;5.53;;
49396;SDS011;35615;41.410;2.194;2023-05-29T07:04:00;14.75;;;5.75;;
49396;SDS011;35615;41.410;2.194;2023-05-29T07:06:28;26.08;;;6.00;;
49396;SDS011;35615;41.410;2.194;2023-05-29T07:08:58;20.02;;;5.70;;
49396;SDS011;35615;41.410;2.194;2023-05-29T07:11:25;18.85;;;5.68;;
49396;SDS011;35615;41.410;2.194;2023-05-29T07:14:00;19.38;;;5.53;;
49396;SDS011;35615;41.410;2.194;2023-05-29T07:16:32;19.10;;;5.40;;
49396;SDS011;35615;41.410;2.194;2023-05-29T07:19:08;31.20;;;6.80;;
49396;SDS011;35615;41.410;2.194;2023-05-29T07:21:55;23.23;;;6.68;;
49396;SDS011;35615;41.410;2.194;2023-05-29T07:24:25;28.33;;;6.60;;
49396;SDS011;35615;41.410;2.194;2023-05-29T07:26:56;20.55;;;6.47;;
49396;SDS011;35615;41.410;2.194;2023-05-29T07:29:26;23.00;;;7.07;;
49396;SDS011;35615;41.410;2.194;2023-05-29T07:31:58;17.23;;;6.85;;
49396;SDS011;35615;41.410;2.194;2023-05-29T07:34:31;25.45;;;6.18;;
49396;SDS011;35615;41.410;2.194;2023-05-29T07:37:10;20.27;;;5.85;;
49396;SDS011;35615;41.410;2.194;2023-05-29T07:39:42;22.88;;;6.00;;
49396;SDS011;35615;41.410;2.194;2023-05-29T07:42:35;22.27;;;6.45;;
49396;SDS011;35615;41.410;2.194;2023-05-29T07:45:08;23.83;;;5.35;;
49396;SDS011;35615;41.410;2.194;2023-05-29T07:47:38;24.70;;;6.88;;
49396;SDS011;35615;41.410;2.194;2023-05-29T07:50:14;33.58;;;7.03;;
49396;SDS011;35615;41.410;2.194;2023-05-29T07:55:25;27.30;;;7.30;;
49396;SDS011;35615;41.410;2.194;2023-05-29T08:01:04;27.05;;;7.82;;
49396;SDS011;35615;41.410;2.194;2023-05-29T08:03:42;25.98;;;7.32;;
49396;SDS011;35615;41.410;2.194;2023-05-29T08:06:27;18.98;;;6.70;;
49396;SDS011;35615;41.410;2.194;2023-05-29T08:09:00;28.35;;;7.85;;
49396;SDS011;35615;41.410;2.194;2023-05-29T08:11:38;29.00;;;7.50;;
49396;SDS011;35615;41.410;2.194;2023-05-29T08:14:21;26.77;;;7.03;;
49396;SDS011;35615;41.410;2.194;2023-05-29T08:16:51;21.60;;;7.00;;
49396;SDS011;35615;41.410;2.194;2023-05-29T08:19:21;19.92;;;6.63;;
49396;SDS011;35615;41.410;2.194;2023-05-29T08:21:57;27.90;;;6.22;;
49396;SDS011;35615;41.410;2.194;2023-05-29T08:24:27;29.33;;;6.55;;
49396;SDS011;35615;41.410;2.194;2023-05-29T08:27:08;22.53;;;6.80;;
49396;SDS011;35615;41.410;2.194;2023-05-29T08:29:38;17.77;;;6.40;;
49396;SDS011;35615;41.410;2.194;2023-05-29T08:32:10;20.65;;;6.05;;
49396;SDS011;35615;41.410;2.194;2023-05-29T08:34:50;18.45;;;6.97;;
49396;SDS011;35615;41.410;2.194;2023-05-29T08:37:33;28.50;;;7.53;;
49396;SDS011;35615;41.410;2.194;2023-05-29T08:40:05;15.52;;;6.57;;
49396;SDS011;35615;41.410;2.194;2023-05-29T08:42:43;23.48;;;7.97;;
49396;SDS011;35615;41.410;2.194;2023-05-29T08:45:19;26.70;;;8.40;;
49396;SDS011;35615;41.410;2.194;2023-05-29T08:47:58;20.33;;;7.07;;
49396;SDS011;35615;41.410;2.194;2023-05-29T08:50:28;23.10;;;7.38;;
49396;SDS011;35615;41.410;2.194;2023-05-29T08:53:06;36.63;;;9.00;;
49396;SDS011;35615;41.410;2.194;2023-05-29T08:55:48;25.70;;;6.32;;
49396;SDS011;35615;41.410;2.194;2023-05-29T08:58:20;33.92;;;8.88;;
49396;SDS011;35615;41.410;2.194;2023-05-29T09:00:54;22.92;;;6.38;;
49396;SDS011;35615;41.410;2.194;2023-05-29T09:03:22;19.05;;;6.28;;
49396;SDS011;35615;41.410;2.194;2023-05-29T09:05:57;23.17;;;6.82;;
49396;SDS011;35615;41.410;2.194;2023-05-29T09:08:30;19.55;;;6.28;;
49396;SDS011;35615;41.410;2.194;2023-05-29T09:11:12;22.35;;;7.68;;
49396;SDS011;35615;41.410;2.194;2023-05-29T09:16:33;30.92;;;7.85;;
49396;SDS011;35615;41.410;2.194;2023-05-29T09:19:11;30.58;;;7.53;;
49396;SDS011;35615;41.410;2.194;2023-05-29T09:21:40;24.85;;;7.00;;
49396;SDS011;35615;41.410;2.194;2023-05-29T09:24:24;23.23;;;7.57;;
49396;SDS011;35615;41.410;2.194;2023-05-29T09:29:39;20.00;;;7.75;;
49396;SDS011;35615;41.410;2.194;2023-05-29T09:32:16;25.48;;;6.82;;
49396;SDS011;35615;41.410;2.194;2023-05-29T09:34:45;20.23;;;6.88;;
49396;SDS011;35615;41.410;2.194;2023-05-29T09:37:13;29.48;;;9.23;;
49396;SDS011;35615;41.410;2.194;2023-05-29T09:39:45;27.00;;;8.35;;
49396;SDS011;35615;41.410;2.194;2023-05-29T09:42:22;30.00;;;7.38;;
49396;SDS011;35615;41.410;2.194;2023-05-29T09:44:54;20.95;;;7.85;;
49396;SDS011;35615;41.410;2.194;2023-05-29T09:47:29;23.40;;;8.73;;
49396;SDS011;35615;41.410;2.194;2023-05-29T09:50:00;24.63;;;8.15;;
49396;SDS011;35615;41.410;2.194;2023-05-29T09:52:33;30.15;;;8.32;;
49396;SDS011;35615;41.410;2.194;2023-05-29T09:55:08;28.13;;;7.82;;
49396;SDS011;35615;41.410;2.194;2023-05-29T09:58:00;24.75;;;7.97;;
49396;SDS011;35615;41.410;2.194;2023-05-29T10:00:46;30.67;;;8.13;;
49396;SDS011;35615;41.410;2.194;2023-05-29T10:03:18;21.20;;;8.73;;
49396;SDS011;35615;41.410;2.194;2023-05-29T10:05:49;25.63;;;11.50;;
49396;SDS011;35615;41.410;2.194;2023-05-29T10:08:21;27.30;;;8.68;;
49396;SDS011;35615;41.410;2.194;2023-05-29T10:10:55;24.15;;;7.90;;
49396;SDS011;35615;41.410;2.194;2023-05-29T10:13:31;18.10;;;7.65;;
49396;SDS011;35615;41.410;2.194;2023-05-29T10:16:09;19.13;;;8.65;;
49396;SDS011;35615;41.410;2.194;2023-05-29T10:18:57;19.27;;;6.90;;
49396;SDS011;35615;41.410;2.194;2023-05-29T10:21:30;21.77;;;7.45;;
49396;SDS011;35615;41.410;2.194;2023-05-29T10:24:04;26.90;;;8.70;;
49396;SDS011;35615;41.410;2.194;2023-05-29T10:26:51;21.63;;;8.30;;
49396;SDS011;35615;41.410;2.194;2023-05-29T10:32:20;26.77;;;8.27;;
49396;SDS011;35615;41.410;2.194;2023-05-29T10:35:14;27.77;;;8.02;;
49396;SDS011;35615;41.410;2.194;2023-05-29T10:40:42;23.15;;;6.70;;
49396;SDS011;35615;41.410;2.194;2023-05-29T10:43:31;25.58;;;7.03;;
49396;SDS011;35615;41.410;2.194;2023-05-29T10:46:05;22.70;;;7.10;;
49396;SDS011;35615;41.410;2.194;2023-05-29T10:48:43;20.73;;;6.85;;
49396;SDS011;35615;41.410;2.194;2023-05-29T10:51:27;20.20;;;7.45;;
49396;SDS011;35615;41.410;2.194;2023-05-29T10:54:10;23.08;;;6.97;;
49396;SDS011;35615;41.410;2.194;2023-05-29T10:56:55;16.67;;;7.07;;
49396;SDS011;35615;41.410;2.194;2023-05-29T10:59:34;33.15;;;8.95;;
49396;SDS011;35615;41.410;2.194;2023-05-29T11:02:27;27.55;;;8.05;;
49396;SDS011;35615;41.410;2.194;2023-05-29T11:05:06;29.63;;;7.50;;
49396;SDS011;35615;41.410;2.194;2023-05-29T11:07:57;20.75;;;6.70;;
49396;SDS011;35615;41.410;2.194;2023-05-29T11:13:32;18.27;;;5.80;;
49396;SDS011;35615;41.410;2.194;2023-05-29T11:19:05;23.75;;;6.88;;
49396;SDS011;35615;41.410;2.194;2023-05-29T11:24:34;19.88;;;7.60;;
49396;SDS011;35615;41.410;2.194;2023-05-29T11:27:09;32.78;;;8.27;;
49396;SDS011;35615;41.410;2.194;2023-05-29T11:30:06;24.63;;;7.43;;
49396;SDS011;35615;41.410;2.194;2023-05-29T11:33:01;22.13;;;7.35;;
49396;SDS011;35615;41.410;2.194;2023-05-29T11:35:38;26.35;;;8.18;;
49396;SDS011;35615;41.410;2.194;2023-05-29T11:38:17;29.00;;;9.20;;
49396;SDS011;35615;41.410;2.194;2023-05-29T11:40:57;26.67;;;7.28;;
49396;SDS011;35615;41.410;2.194;2023-05-29T11:43:35;22.02;;;7.07;;
49396;SDS011;35615;41.410;2.194;2023-05-29T11:46:16;19.23;;;7.05;;
49396;SDS011;35615;41.410;2.194;2023-05-29T11:49:03;29.45;;;7.47;;
49396;SDS011;35615;41.410;2.194;2023-05-29T11:51:35;28.73;;;6.88;;
49396;SDS011;35615;41.410;2.194;2023-05-29T11:54:03;17.90;;;7.13;;
49396;SDS011;35615;41.410;2.194;2023-05-29T11:56:33;24.13;;;6.32;;
49396;SDS011;35615;41.410;2.194;2023-05-29T11:59:03;31.17;;;6.88;;
49396;SDS011;35615;41.410;2.194;2023-05-29T12:01:37;18.17;;;6.35;;
49396;SDS011;35615;41.410;2.194;2023-05-29T12:04:14;17.83;;;5.40;;
49396;SDS011;35615;41.410;2.194;2023-05-29T12:06:51;21.00;;;5.90;;
49396;SDS011;35615;41.410;2.194;2023-05-29T12:09:26;32.30;;;6.38;;
49396;SDS011;35615;41.410;2.194;2023-05-29T12:12:03;15.68;;;5.95;;
49396;SDS011;35615;41.410;2.194;2023-05-29T12:14:34;22.10;;;5.97;;
49396;SDS011;35615;41.410;2.194;2023-05-29T12:17:04;21.58;;;5.63;;
49396;SDS011;35615;41.410;2.194;2023-05-29T12:19:37;19.92;;;5.35;;
49396;SDS011;35615;41.410;2.194;2023-05-29T12:22:07;19.90;;;6.17;;
49396;SDS011;35615;41.410;2.194;2023-05-29T12:24:37;28.73;;;6.35;;
49396;SDS011;35615;41.410;2.194;2023-05-29T12:27:09;22.08;;;5.05;;
49396;SDS011;35615;41.410;2.194;2023-05-29T12:29:38;20.42;;;5.72;;
49396;SDS011;35615;41.410;2.194;2023-05-29T12:32:09;18.75;;;5.57;;
49396;SDS011;35615;41.410;2.194;2023-05-29T12:34:37;19.25;;;6.32;;
49396;SDS011;35615;41.410;2.194;2023-05-29T12:37:29;17.90;;;6.65;;
49396;SDS011;35615;41.410;2.194;2023-05-29T12:40:16;15.65;;;5.40;;
49396;SDS011;35615;41.410;2.194;2023-05-29T12:43:05;24.92;;;7.22;;
49396;SDS011;35615;41.410;2.194;2023-05-29T12:45:38;15.93;;;6.18;;
49396;SDS011;35615;41.410;2.194;2023-05-29T12:48:06;17.05;;;5.53;;
49396;SDS011;35615;41.410;2.194;2023-05-29T12:50:44;23.33;;;7.50;;
49396;SDS011;35615;41.410;2.194;2023-05-29T12:53:18;19.13;;;6.20;;
49396;SDS011;35615;41.410;2.194;2023-05-29T12:56:08;26.95;;;7.63;;
49396;SDS011;35615;41.410;2.194;2023-05-29T12:58:35;20.17;;;6.30;;
49396;SDS011;35615;41.410;2.194;2023-05-29T13:01:02;24.00;;;7.05;;
49396;SDS011;35615;41.410;2.194;2023-05-29T13:03:34;23.48;;;7.00;;
49396;SDS011;35615;41.410;2.194;2023-05-29T13:06:14;26.50;;;7.93;;
49396;SDS011;35615;41.410;2.194;2023-05-29T13:08:50;20.95;;;7.53;;
49396;SDS011;35615;41.410;2.194;2023-05-29T13:11:22;21.92;;;6.63;;
49396;SDS011;35615;41.410;2.194;2023-05-29T13:14:10;24.13;;;6.82;;
49396;SDS011;35615;41.410;2.194;2023-05-29T13:16:56;20.13;;;6.60;;
49396;SDS011;35615;41.410;2.194;2023-05-29T13:19:45;26.00;;;8.10;;
49396;SDS011;35615;41.410;2.194;2023-05-29T13:22:14;22.83;;;6.97;;
49396;SDS011;35615;41.410;2.194;2023-05-29T13:24:42;31.55;;;8.35;;
49396;SDS011;35615;41.410;2.194;2023-05-29T13:27:12;29.75;;;7.40;;
49396;SDS011;35615;41.410;2.194;2023-05-29T13:29:51;28.98;;;8.43;;
49396;SDS011;35615;41.410;2.194;2023-05-29T13:32:21;32.65;;;8.40;;
49396;SDS011;35615;41.410;2.194;2023-05-29T13:34:51;20.92;;;7.63;;
49396;SDS011;35615;41.410;2.194;2023-05-29T13:37:36;15.02;;;6.97;;
49396;SDS011;35615;41.410;2.194;2023-05-29T13:40:04;18.23;;;7.15;;
49396;SDS011;35615;41.410;2.194;2023-05-29T13:42:36;21.77;;;7.05;;
49396;SDS011;35615;41.410;2.194;2023-05-29T13:45:15;24.73;;;6.88;;
49396;SDS011;35615;41.410;2.194;2023-05-29T13:47:46;21.65;;;7.13;;
49396;SDS011;35615;41.410;2.194;2023-05-29T13:50:19;21.77;;;6.68;;
49396;SDS011;35615;41.410;2.194;2023-05-29T13:52:46;23.92;;;6.88;;
49396;SDS011;35615;41.410;2.194;2023-05-29T13:55:20;19.83;;;5.93;;
49396;SDS011;35615;41.410;2.194;2023-05-29T13:57:53;17.98;;;6.10;;
49396;SDS011;35615;41.410;2.194;2023-05-29T14:00:28;22.55;;;6.82;;
49396;SDS011;35615;41.410;2.194;2023-05-29T14:02:58;18.77;;;6.60;;
49396;SDS011;35615;41.410;2.194;2023-05-29T14:05:39;18.70;;;6.80;;
49396;SDS011;35615;41.410;2.194;2023-05-29T14:08:12;25.97;;;7.27;;
49396;SDS011;35615;41.410;2.194;2023-05-29T14:10:53;19.80;;;6.68;;
49396;SDS011;35615;41.410;2.194;2023-05-29T14:13:26;16.23;;;6.53;;
49396;SDS011;35615;41.410;2.194;2023-05-29T14:15:54;24.05;;;7.60;;
49396;SDS011;35615;41.410;2.194;2023-05-29T14:18:23;26.25;;;6.68;;
49396;SDS011;35615;41.410;2.194;2023-05-29T14:21:06;19.63;;;6.68;;
49396;SDS011;35615;41.410;2.194;2023-05-29T14:23:34;25.42;;;7.00;;
49396;SDS011;35615;41.410;2.194;2023-05-29T14:26:02;21.40;;;7.57;;
49396;SDS011;35615;41.410;2.194;2023-05-29T14:31:05;18.25;;;6.57;;
49396;SDS011;35615;41.410;2.194;2023-05-29T14:33:33;24.45;;;9.35;;
49396;SDS011;35615;41.410;2.194;2023-05-29T14:36:06;16.40;;;7.60;;
49396;SDS011;35615;41.410;2.194;2023-05-29T14:38:42;21.13;;;8.68;;
49396;SDS011;35615;41.410;2.194;2023-05-29T14:41:11;18.85;;;8.07;;
49396;SDS011;35615;41.410;2.194;2023-05-29T14:43:41;25.02;;;8.30;;
49396;SDS011;35615;41.410;2.194;2023-05-29T14:46:09;22.73;;;8.02;;
49396;SDS011;35615;41.410;2.194;2023-05-29T14:48:37;29.45;;;8.25;;
49396;SDS011;35615;41.410;2.194;2023-05-29T14:51:04;18.17;;;7.10;;
49396;SDS011;35615;41.410;2.194;2023-05-29T14:53:33;14.77;;;7.13;;
49396;SDS011;35615;41.410;2.194;2023-05-29T14:56:01;19.85;;;7.40;;
49396;SDS011;35615;41.410;2.194;2023-05-29T14:58:29;21.00;;;8.00;;
49396;SDS011;35615;41.410;2.194;2023-05-29T15:00:56;17.42;;;7.93;;
49396;SDS011;35615;41.410;2.194;2023-05-29T15:03:30;23.88;;;7.57;;
49396;SDS011;35615;41.410;2.194;2023-05-29T15:06:02;15.13;;;7.43;;
49396;SDS011;35615;41.410;2.194;2023-05-29T15:08:36;20.65;;;6.80;;
49396;SDS011;35615;41.410;2.194;2023-05-29T15:11:03;29.10;;;7.68;;
49396;SDS011;35615;41.410;2.194;2023-05-29T15:13:38;26.10;;;9.25;;
49396;SDS011;35615;41.410;2.194;2023-05-29T15:16:13;19.27;;;7.22;;
49396;SDS011;35615;41.410;2.194;2023-05-29T15:18:48;18.48;;;7.53;;
49396;SDS011;35615;41.410;2.194;2023-05-29T15:21:18;25.05;;;8.73;;
49396;SDS011;35615;41.410;2.194;2023-05-29T15:24:04;28.27;;;10.05;;
49396;SDS011;35615;41.410;2.194;2023-05-29T15:26:33;30.02;;;10.38;;
49396;SDS011;35615;41.410;2.194;2023-05-29T15:29:01;29.20;;;9.25;;
49396;SDS011;35615;41.410;2.194;2023-05-29T15:31:30;28.75;;;9.45;;
49396;SDS011;35615;41.410;2.194;2023-05-29T15:33:57;24.73;;;9.18;;
49396;SDS011;35615;41.410;2.194;2023-05-29T15:36:27;26.15;;;10.73;;
49396;SDS011;35615;41.410;2.194;2023-05-29T15:39:08;23.73;;;10.57;;
49396;SDS011;35615;41.410;2.194;2023-05-29T15:41:44;24.70;;;9.15;;
49396;SDS011;35615;41.410;2.194;2023-05-29T15:44:18;30.48;;;10.07;;